createdAt,value
2019-03-22T00:00:57.002Z,101920.50
2019-03-22T00:03:22.864Z,101927.94
2019-03-22T00:05:48.824Z,101935.84
2019-03-22T00:08:14.722Z,101940.67
2019-03-22T00:10:40.879Z,101957.80
2019-03-22T00:13:06.738Z,101961.76
2019-03-22T00:15:32.677Z,101961.76
2019-03-22T00:17:58.495Z,101974.03
2019-03-22T00:20:24.395Z,101967.02
2019-03-22T00:22:50.342Z,101977.97
2019-03-22T00:25:16.203Z,101983.23
2019-03-22T00:27:42.146Z,101988.95
2019-03-22T00:30:09.509Z,101993.33
2019-03-22T00:32:35.449Z,102000.33
2019-03-22T00:35:01.334Z,101994.64
2019-03-22T00:37:27.296Z,101999.02
2019-03-22T00:39:53.157Z,102001.67
2019-03-22T00:42:19.129Z,102011.78
2019-03-22T00:44:45.077Z,102022.31
2019-03-22T00:47:11.301Z,102031.10
2019-03-22T00:49:37.270Z,102034.58
2019-03-22T00:52:03.120Z,102042.95
2019-03-22T00:54:28.982Z,102042.95
2019-03-22T00:56:54.834Z,102047.75
2019-03-22T00:59:20.725Z,102049.52
2019-03-22T01:01:46.566Z,102056.95
2019-03-22T01:04:12.441Z,102062.23
2019-03-22T01:06:38.340Z,102060.08
2019-03-22T01:09:04.447Z,102061.42
2019-03-22T01:11:30.522Z,102063.59
2019-03-22T01:13:56.476Z,102068.02
2019-03-22T01:16:22.339Z,102069.31
2019-03-22T01:18:48.189Z,102082.95
2019-03-22T01:21:14.171Z,102097.86
2019-03-22T01:23:40.045Z,102100.92
2019-03-22T01:26:05.991Z,102098.30
2019-03-22T01:28:31.858Z,102111.92
2019-03-22T01:30:57.859Z,102114.09
2019-03-22T01:33:23.727Z,102114.98
2019-03-22T01:35:49.668Z,102114.56
2019-03-22T01:38:15.546Z,102116.30
2019-03-22T01:40:41.401Z,102129.89
2019-03-22T01:43:09.782Z,102129.03
2019-03-22T01:45:35.786Z,102141.73
2019-03-22T01:48:01.746Z,102149.63
2019-03-22T01:50:27.606Z,102154.05
2019-03-22T01:52:53.607Z,102164.56
2019-03-22T01:55:19.471Z,102169.37
2019-03-22T01:57:52.971Z,102172.89
2019-03-22T02:00:13.901Z,102179.47
2019-03-22T02:02:40.358Z,102184.73
2019-03-22T02:05:06.524Z,102190.42
2019-03-22T02:07:32.605Z,102199.20
2019-03-22T02:09:58.493Z,102203.57
2019-03-22T02:12:24.450Z,102206.20
2019-03-22T02:14:50.447Z,102211.89
2019-03-22T02:17:16.275Z,102213.67
2019-03-22T02:19:42.181Z,102228.13
2019-03-22T02:22:08.071Z,102236.45
2019-03-22T02:24:34.036Z,102238.66
2019-03-22T02:26:59.890Z,102241.71
2019-03-22T02:29:25.778Z,102243.45
2019-03-22T02:31:51.619Z,102248.28
2019-03-22T02:34:17.499Z,102254.43
2019-03-22T02:36:43.389Z,102253.54
2019-03-22T02:39:09.352Z,102244.77
2019-03-22T02:41:35.195Z,102239.50
2019-03-22T02:44:01.097Z,102238.19
2019-03-22T02:46:26.974Z,102239.92
2019-03-22T02:48:52.847Z,102250.89
2019-03-22T02:51:20.631Z,102261.41
2019-03-22T02:53:46.579Z,102277.61
2019-03-22T02:56:12.707Z,102272.36
2019-03-22T02:58:38.632Z,102280.67
2019-03-22T03:01:04.613Z,102285.50
2019-03-22T03:03:30.466Z,102284.61
2019-03-22T03:05:56.718Z,102294.28
2019-03-22T03:08:22.581Z,102299.95
2019-03-22T03:10:48.532Z,102299.95
2019-03-22T03:13:14.588Z,102308.27
2019-03-22T03:15:41.960Z,102277.56
2019-03-22T03:18:07.839Z,102312.67
2019-03-22T03:20:33.755Z,102321.87
2019-03-22T03:22:59.614Z,102324.50
2019-03-22T03:25:25.761Z,102291.11
2019-03-22T03:27:51.631Z,102331.06
2019-03-22T03:30:19.383Z,102327.55
2019-03-22T03:32:45.356Z,102321.86
2019-03-22T03:35:11.540Z,102342.42
2019-03-22T03:37:37.370Z,102346.34
2019-03-22T03:40:05.134Z,102352.06
2019-03-22T03:42:31.207Z,102361.67
2019-03-22T03:44:57.065Z,102362.56
2019-03-22T03:47:24.812Z,102374.81
2019-03-22T03:49:50.687Z,102369.13
2019-03-22T03:52:16.575Z,102384.02
2019-03-22T03:54:42.477Z,102388.39
2019-03-22T03:57:08.378Z,102401.53
2019-03-22T03:59:34.238Z,102415.56
2019-03-22T04:02:00.114Z,102426.09
2019-03-22T04:04:25.997Z,102428.70
2019-03-22T04:06:51.861Z,102437.02
2019-03-22T04:09:17.704Z,102440.53
2019-03-22T04:11:43.680Z,102453.67
2019-03-22T04:14:09.695Z,102464.17
2019-03-22T04:16:35.646Z,102468.98
2019-03-22T04:19:01.599Z,102480.34
2019-03-22T04:21:27.448Z,102474.66
2019-03-22T04:23:53.337Z,102479.89
2019-03-22T04:26:19.280Z,102484.25
2019-03-22T04:28:45.141Z,102484.66
2019-03-22T04:31:11.012Z,102491.22
2019-03-22T04:33:36.870Z,102491.22
2019-03-22T04:36:02.837Z,102494.30
2019-03-22T04:38:28.692Z,102500.87
2019-03-22T04:40:54.726Z,102495.16
2019-03-22T04:43:20.640Z,102508.29
2019-03-22T04:45:46.617Z,102518.80
2019-03-22T04:48:17.412Z,102523.62
2019-03-22T04:50:45.153Z,102522.30
2019-03-22T04:53:12.608Z,102531.06
2019-03-22T04:55:40.372Z,102536.34
2019-03-22T04:58:07.517Z,102545.95
2019-03-22T05:00:34.461Z,102544.20
2019-03-22T05:03:00.452Z,102542.02
2019-03-22T05:05:26.412Z,102543.33
2019-03-22T05:07:52.473Z,102550.78
2019-03-22T05:10:19.042Z,102556.03
2019-03-22T05:12:45.254Z,102561.27
2019-03-22T05:15:13.121Z,102567.34
2019-03-22T05:17:39.795Z,102570.44
2019-03-22T05:20:05.756Z,102573.92
2019-03-22T05:22:32.525Z,102571.75
2019-03-22T05:24:59.676Z,102572.17
2019-03-22T05:27:27.266Z,102576.09
2019-03-22T05:29:55.025Z,102576.97
2019-03-22T05:32:20.884Z,102580.00
2019-03-22T05:34:46.767Z,102591.38
2019-03-22T05:37:12.628Z,102603.63
2019-03-22T05:39:38.500Z,102608.88
2019-03-22T05:42:04.443Z,102609.77
2019-03-22T05:44:30.448Z,102616.34
2019-03-22T05:46:56.528Z,102618.08
2019-03-22T05:49:22.362Z,102621.59
2019-03-22T05:51:48.238Z,102615.90
2019-03-22T05:54:14.099Z,102618.11
2019-03-22T05:56:40.061Z,102636.51
2019-03-22T05:59:06.020Z,102626.00
2019-03-22T06:01:31.913Z,102627.30
2019-03-22T06:03:57.868Z,102632.98
2019-03-22T06:06:23.728Z,102637.40
2019-03-22T06:08:49.799Z,102633.87
2019-03-22T06:11:15.712Z,102638.73
2019-03-22T06:13:44.244Z,102648.38
2019-03-22T06:16:09.319Z,102654.08
2019-03-22T06:18:35.192Z,102660.65
2019-03-22T06:21:01.079Z,102619.71
2019-03-22T06:23:28.265Z,102669.47
2019-03-22T06:25:54.498Z,102674.33
2019-03-22T06:28:20.343Z,102676.09
2019-03-22T06:30:46.182Z,102678.73
2019-03-22T06:33:12.085Z,102678.33
2019-03-22T06:35:38.080Z,102673.50
2019-03-22T06:38:05.244Z,102679.24
2019-03-22T06:40:31.141Z,102684.07
2019-03-22T06:42:56.994Z,102684.98
2019-03-22T06:45:22.982Z,102690.68
2019-03-22T06:47:48.817Z,102691.16
2019-03-22T06:50:14.674Z,102702.58
2019-03-22T06:52:40.554Z,102707.87
2019-03-22T06:55:06.522Z,102716.69
2019-03-22T06:57:32.389Z,102716.29
2019-03-22T07:00:06.532Z,102715.89
2019-03-22T07:02:26.234Z,102718.95
2019-03-22T07:04:52.128Z,102712.83
2019-03-22T07:07:17.969Z,102715.48
2019-03-22T07:09:44.818Z,102710.23
2019-03-22T07:12:10.706Z,102705.47
2019-03-22T07:14:36.889Z,102708.55
2019-03-22T07:17:03.067Z,102716.91
2019-03-22T07:19:28.916Z,102717.82
2019-03-22T07:21:56.618Z,102715.22
2019-03-22T07:24:22.441Z,102715.71
2019-03-22T07:26:48.319Z,102725.37
2019-03-22T07:29:14.193Z,102733.72
2019-03-22T07:31:40.071Z,102738.58
2019-03-22T07:34:05.955Z,102739.91
2019-03-22T07:36:31.808Z,102742.98
2019-03-22T07:38:57.692Z,102745.64
2019-03-22T07:41:23.647Z,102747.45
2019-03-22T07:43:49.493Z,102754.48
2019-03-22T07:46:15.357Z,102757.60
2019-03-22T07:48:41.252Z,102768.59
2019-03-22T07:51:07.083Z,102763.34
2019-03-22T07:53:32.945Z,102778.28
2019-03-22T07:55:58.940Z,102780.51
2019-03-22T07:58:24.782Z,102781.85
2019-03-22T08:00:50.651Z,102791.98
2019-03-22T08:03:16.553Z,102783.68
2019-03-22T08:05:50.774Z,102783.25
2019-03-22T08:08:10.216Z,102791.19
2019-03-22T08:10:36.191Z,102776.23
2019-03-22T08:13:02.153Z,102801.77
2019-03-22T08:15:28.894Z,102797.41
2019-03-22T08:17:57.013Z,102802.27
2019-03-22T08:20:22.641Z,102809.77
2019-03-22T08:22:48.590Z,102819.02
2019-03-22T08:25:14.477Z,102815.94
2019-03-22T08:27:40.350Z,102810.68
2019-03-22T08:30:06.420Z,102810.71
2019-03-22T08:32:32.484Z,102805.03
2019-03-22T08:34:58.327Z,102802.84
2019-03-22T08:37:24.180Z,102812.11
2019-03-22T08:39:50.186Z,102816.50
2019-03-22T08:42:16.145Z,102820.91
2019-03-22T08:44:42.026Z,102824.45
2019-03-22T08:47:07.898Z,102827.52
2019-03-22T08:49:33.763Z,102826.69
2019-03-22T08:51:59.796Z,102820.95
2019-03-22T08:54:25.685Z,102818.38
2019-03-22T08:56:51.595Z,102813.97
2019-03-22T08:59:17.420Z,102811.80
2019-03-22T09:01:43.313Z,102809.17
2019-03-22T09:04:09.149Z,102807.40
2019-03-22T09:06:35.141Z,102802.59
2019-03-22T09:09:01.024Z,102805.67
2019-03-22T09:11:26.900Z,102798.21
2019-03-22T09:13:53.872Z,102793.36
2019-03-22T09:16:20.016Z,102803.49
2019-03-22T09:18:46.248Z,102800.85
2019-03-22T09:21:12.256Z,102808.77
2019-03-22T09:23:38.168Z,102810.98
2019-03-22T09:26:04.046Z,102810.08
2019-03-22T09:28:31.009Z,102803.89
2019-03-22T09:31:09.424Z,102801.70
2019-03-22T09:33:24.641Z,102804.32
2019-03-22T09:35:50.622Z,102802.08
2019-03-22T09:38:16.465Z,102802.94
2019-03-22T09:40:42.332Z,102799.41
2019-03-22T09:43:08.195Z,102743.49
2019-03-22T09:45:34.192Z,102773.76
2019-03-22T09:48:00.247Z,102775.50
2019-03-22T09:50:26.277Z,102773.69
2019-03-22T09:52:52.127Z,102770.08
2019-03-22T09:55:18.075Z,102767.86
2019-03-22T09:57:43.971Z,102765.54
2019-03-22T10:00:11.845Z,102765.87
2019-03-22T10:02:37.973Z,102762.62
2019-03-22T10:05:04.633Z,102764.65
2019-03-22T10:07:30.490Z,102757.05
2019-03-22T10:09:56.434Z,102762.63
2019-03-22T10:12:22.282Z,102759.83
2019-03-22T10:14:48.191Z,102757.49
2019-03-22T10:17:14.216Z,102748.92
2019-03-22T10:19:42.151Z,102701.27
2019-03-22T10:22:07.870Z,102738.36
2019-03-22T10:24:33.714Z,102743.92
2019-03-22T10:26:59.580Z,102734.00
2019-03-22T10:29:25.484Z,102734.62
2019-03-22T10:31:51.362Z,102728.20
2019-03-22T10:34:17.232Z,102722.26
2019-03-22T10:36:43.500Z,102719.36
2019-03-22T10:39:09.399Z,102725.35
2019-03-22T10:41:35.354Z,102720.31
2019-03-22T10:44:01.488Z,102717.56
2019-03-22T10:46:27.557Z,102713.91
2019-03-22T10:48:53.353Z,102706.16
2019-03-22T10:51:21.534Z,102707.22
2019-03-22T10:53:46.916Z,102699.44
2019-03-22T10:56:12.776Z,102696.52
2019-03-22T10:58:38.779Z,102698.95
2019-03-22T11:01:08.011Z,102686.33
2019-03-22T11:03:32.508Z,102681.27
2019-03-22T11:05:58.386Z,102678.58
2019-03-22T11:08:24.358Z,102674.96
2019-03-22T11:10:50.323Z,102668.16
2019-03-22T11:13:16.358Z,102675.23
2019-03-22T11:15:48.455Z,102669.72
2019-03-22T11:18:09.954Z,102673.02
2019-03-22T11:20:36.042Z,102667.98
2019-03-22T11:23:02.013Z,102675.27
2019-03-22T11:25:27.993Z,102671.89
2019-03-22T11:27:53.962Z,102677.55
2019-03-22T11:30:19.936Z,102668.14
2019-03-22T11:32:45.861Z,102673.72
2019-03-22T11:35:11.942Z,102670.41
2019-03-22T11:37:37.809Z,102668.02
2019-03-22T11:40:07.913Z,102661.11
2019-03-22T11:42:33.805Z,102656.46
2019-03-22T11:44:59.660Z,102643.84
2019-03-22T11:47:25.526Z,102643.19
2019-03-22T11:49:51.394Z,102638.08
2019-03-22T11:52:17.375Z,102630.03
2019-03-22T11:54:43.214Z,102633.50
2019-03-22T11:57:09.153Z,102626.70
2019-03-22T11:59:35.026Z,102619.84
2019-03-22T12:02:00.891Z,102610.86
2019-03-22T12:04:26.746Z,102602.58
2019-03-22T12:06:52.689Z,102593.90
2019-03-22T12:09:18.759Z,102581.55
2019-03-22T12:11:44.616Z,102580.62
2019-03-22T12:14:10.479Z,102582.90
2019-03-22T12:16:36.477Z,102580.31
2019-03-22T12:19:02.549Z,102572.33
2019-03-22T12:21:28.518Z,102570.67
2019-03-22T12:23:54.393Z,102566.44
2019-03-22T12:26:20.259Z,102559.01
2019-03-22T12:28:46.274Z,102552.66
2019-03-22T12:31:12.266Z,102544.09
2019-03-22T12:33:38.118Z,102533.29
2019-03-22T12:36:04.088Z,102526.44
2019-03-22T12:38:29.938Z,102526.77
2019-03-22T12:40:55.815Z,102529.33
2019-03-22T12:43:21.659Z,102519.86
2019-03-22T12:45:47.557Z,102524.04
2019-03-22T12:48:13.501Z,102522.53
2019-03-22T12:50:39.464Z,102509.00
2019-03-22T12:53:05.448Z,102506.75
2019-03-22T12:55:31.413Z,102497.08
2019-03-22T12:57:59.373Z,102494.63
2019-03-22T13:00:25.335Z,102484.36
2019-03-22T13:02:51.619Z,102459.05
2019-03-22T13:05:17.778Z,102471.63
2019-03-22T13:07:43.849Z,102460.61
2019-03-22T13:10:11.593Z,102459.05
2019-03-22T13:12:37.561Z,102449.09
2019-03-22T13:15:04.138Z,102439.80
2019-03-22T13:17:30.021Z,102440.45
2019-03-22T13:19:55.987Z,102438.59
2019-03-22T13:22:22.135Z,102436.27
2019-03-22T13:24:47.995Z,102435.27
2019-03-22T13:27:13.856Z,102435.98
2019-03-22T13:29:40.050Z,102424.38
2019-03-22T13:32:05.911Z,102422.21
2019-03-22T13:34:31.759Z,102417.38
2019-03-22T13:36:57.746Z,102413.31
2019-03-22T13:39:23.606Z,102413.88
2019-03-22T13:41:49.465Z,102410.16
2019-03-22T13:44:15.312Z,102404.14
2019-03-22T13:46:41.254Z,102395.41
2019-03-22T13:49:07.248Z,102392.85
2019-03-22T13:51:33.200Z,102393.31
2019-03-22T13:53:59.062Z,102389.64
2019-03-22T13:56:25.106Z,102377.19
2019-03-22T13:58:50.990Z,102378.07
2019-03-22T14:01:16.985Z,102372.92
2019-03-22T14:03:42.848Z,102366.53
2019-03-22T14:06:08.690Z,102364.25
2019-03-22T14:08:34.560Z,102368.19
2019-03-22T14:11:00.435Z,102372.95
2019-03-22T14:13:26.425Z,102367.54
2019-03-22T14:15:52.306Z,102362.09
2019-03-22T14:18:18.157Z,102364.66
2019-03-22T14:20:44.098Z,102333.57
2019-03-22T14:23:10.439Z,102356.94
2019-03-22T14:25:36.289Z,102323.97
2019-03-22T14:28:02.242Z,102349.14
2019-03-22T14:30:28.239Z,102344.93
2019-03-22T14:32:54.186Z,102345.66
2019-03-22T14:35:20.030Z,102345.55
2019-03-22T14:37:46.126Z,102350.07
2019-03-22T14:40:15.591Z,102339.11
2019-03-22T14:42:39.977Z,102329.00
2019-03-22T14:45:07.029Z,102335.50
2019-03-22T14:47:32.866Z,102330.44
2019-03-22T14:49:58.732Z,102327.50
2019-03-22T14:52:24.728Z,102316.26
2019-03-22T14:54:50.588Z,102320.78
2019-03-22T14:57:17.228Z,102321.87
2019-03-22T14:59:43.123Z,102321.71
2019-03-22T15:02:10.844Z,102315.38
2019-03-22T15:04:36.870Z,102309.94
2019-03-22T15:07:02.824Z,102303.52
2019-03-22T15:09:28.653Z,102311.28
2019-03-22T15:11:54.508Z,102273.91
2019-03-22T15:14:28.290Z,102303.02
2019-03-22T15:17:12.567Z,102296.11
2019-03-22T15:19:42.503Z,102306.54
2019-03-22T15:22:10.054Z,102305.45
2019-03-22T15:24:41.259Z,102296.81
2019-03-22T15:27:15.278Z,102293.47
2019-03-22T15:29:59.519Z,102286.59
2019-03-22T15:32:43.840Z,102284.55
2019-03-22T15:35:11.785Z,102275.39
2019-03-22T15:37:45.243Z,102265.82
2019-03-22T15:40:11.201Z,102246.09
2019-03-22T15:42:37.281Z,102229.89
2019-03-22T15:45:04.574Z,102228.72
2019-03-22T15:47:30.758Z,102220.52
2019-03-22T15:49:56.710Z,102211.42
2019-03-22T15:52:22.750Z,102205.42
2019-03-22T15:54:48.596Z,102203.84
2019-03-22T15:57:14.560Z,102195.63
2019-03-22T15:59:40.621Z,102195.39
2019-03-22T16:02:06.568Z,102199.03
2019-03-22T16:04:32.433Z,102198.84
2019-03-22T16:06:58.455Z,102199.11
2019-03-22T16:09:24.307Z,102202.80
2019-03-22T16:11:50.162Z,102202.09
2019-03-22T16:14:16.164Z,102192.95
2019-03-22T16:16:42.028Z,102187.75
2019-03-22T16:19:07.880Z,102168.92
2019-03-22T16:21:33.775Z,102157.54
2019-03-22T16:23:59.627Z,102145.42
2019-03-22T16:26:25.630Z,102132.83
2019-03-22T16:28:51.495Z,102123.69
2019-03-22T16:31:17.346Z,102112.76
2019-03-22T16:33:43.316Z,102120.45
2019-03-22T16:36:09.195Z,102128.49
2019-03-22T16:38:35.038Z,102117.56
2019-03-22T16:41:00.904Z,102104.47
2019-03-22T16:43:26.750Z,102089.63
2019-03-22T16:45:52.634Z,102085.34
2019-03-22T16:48:18.531Z,102080.53
2019-03-22T16:50:44.407Z,102073.11
2019-03-22T16:53:11.214Z,102064.37
2019-03-22T16:55:37.064Z,102049.46
2019-03-22T16:58:03.420Z,102045.95
2019-03-22T17:00:29.388Z,102034.09
2019-03-22T17:02:55.251Z,102030.17
2019-03-22T17:05:21.240Z,102038.98
2019-03-22T17:07:47.250Z,102045.59
2019-03-22T17:10:13.203Z,102039.94
2019-03-22T17:12:39.136Z,102047.45
2019-03-22T17:15:05.916Z,102040.05
2019-03-22T17:17:33.664Z,102036.97
2019-03-22T17:19:59.587Z,102039.25
2019-03-22T17:22:25.436Z,102030.92
2019-03-22T17:24:51.286Z,102022.20
2019-03-22T17:27:17.463Z,102012.14
2019-03-22T17:29:43.316Z,102001.19
2019-03-22T17:32:09.261Z,102002.52
2019-03-22T17:34:35.170Z,101992.45
2019-03-22T17:37:01.142Z,101984.44
2019-03-22T17:39:29.059Z,101983.98
2019-03-22T17:41:54.934Z,101967.22
2019-03-22T17:44:20.779Z,101971.16
2019-03-22T17:46:46.836Z,101961.47
2019-03-22T17:49:12.711Z,101955.70
2019-03-22T17:51:38.678Z,101951.72
2019-03-22T17:54:05.827Z,101951.72
2019-03-22T17:56:31.721Z,101936.85
2019-03-22T17:58:57.573Z,101925.00
2019-03-22T18:01:23.444Z,101909.58
2019-03-22T18:03:49.287Z,101900.38
2019-03-22T18:06:15.129Z,101899.95
2019-03-22T18:08:41.036Z,101886.75
2019-03-22T18:11:06.933Z,101882.34
2019-03-22T18:13:32.910Z,101875.30
2019-03-22T18:15:58.853Z,101859.48
2019-03-22T18:18:24.886Z,101859.05
2019-03-22T18:20:50.750Z,101859.45
2019-03-22T18:23:16.606Z,101847.61
2019-03-22T18:25:42.531Z,101842.77
2019-03-22T18:28:11.085Z,101858.56
2019-03-22T18:30:36.963Z,101852.38
2019-03-22T18:33:03.140Z,101846.64
2019-03-22T18:35:29.116Z,101846.14
2019-03-22T18:37:54.991Z,101832.56
2019-03-22T18:40:20.855Z,101837.84
2019-03-22T18:42:46.778Z,101829.51
2019-03-22T18:45:12.731Z,101830.85
2019-03-22T18:47:39.011Z,101826.91
2019-03-22T18:50:05.994Z,101822.94
2019-03-22T18:52:31.981Z,101827.79
2019-03-22T18:54:57.840Z,101818.59
2019-03-22T18:57:23.674Z,101800.63
2019-03-22T18:59:49.527Z,101808.07
2019-03-22T19:02:15.505Z,101798.40
2019-03-22T19:04:44.384Z,101764.09
2019-03-22T19:07:09.132Z,101767.59
2019-03-22T19:09:34.996Z,101753.48
2019-03-22T19:12:00.868Z,101734.98
2019-03-22T19:14:26.714Z,101731.03
2019-03-22T19:16:52.680Z,101717.83
2019-03-22T19:19:18.542Z,101725.73
2019-03-22T19:21:44.497Z,101704.23
2019-03-22T19:24:10.472Z,101699.77
2019-03-22T19:26:36.406Z,101704.17
2019-03-22T19:29:02.783Z,101697.55
2019-03-22T19:31:28.635Z,101694.44
2019-03-22T19:33:54.502Z,101692.66
2019-03-22T19:36:20.346Z,101685.09
2019-03-22T19:38:46.316Z,101672.31
2019-03-22T19:41:12.615Z,101665.72
2019-03-22T19:43:38.464Z,101656.00
2019-03-22T19:46:04.439Z,101640.17
2019-03-22T19:48:30.302Z,101626.97
2019-03-22T19:50:56.137Z,101618.17
2019-03-22T19:53:22.139Z,101621.64
2019-03-22T19:55:48.011Z,101613.22
2019-03-22T19:58:14.099Z,101604.39
2019-03-22T20:00:40.060Z,101604.36
2019-03-22T20:03:06.017Z,101598.58
2019-03-22T20:05:31.997Z,101598.55
2019-03-22T20:07:58.065Z,101582.67
2019-03-22T20:10:23.955Z,101586.16
2019-03-22T20:12:49.915Z,101565.41
2019-03-22T20:15:15.776Z,101556.58
2019-03-22T20:17:41.747Z,101545.95
2019-03-22T20:20:07.917Z,101555.98
2019-03-22T20:22:35.388Z,101558.99
2019-03-22T20:25:01.380Z,101561.16
2019-03-22T20:27:27.314Z,101554.05
2019-03-22T20:29:54.712Z,101540.38
2019-03-22T20:32:20.703Z,101524.49
2019-03-22T20:34:48.464Z,101525.78
2019-03-22T20:37:14.328Z,101522.66
2019-03-22T20:39:40.207Z,101515.15
2019-03-22T20:42:06.100Z,101522.16
2019-03-22T20:44:34.124Z,101493.14
2019-03-22T20:46:59.633Z,101480.33
2019-03-22T20:49:25.497Z,101472.81
2019-03-22T20:51:51.510Z,101473.69
2019-03-22T20:54:17.368Z,101472.78
2019-03-22T20:56:43.233Z,101450.28
2019-03-22T20:59:09.098Z,101441.01
2019-03-22T21:01:35.066Z,101445.38
2019-03-22T21:04:01.963Z,101431.76
2019-03-22T21:06:27.931Z,101414.15
2019-03-22T21:08:53.868Z,101422.11
2019-03-22T21:11:19.775Z,101414.23
2019-03-22T21:13:45.631Z,101402.78
2019-03-22T21:16:11.481Z,101396.62
2019-03-22T21:18:37.339Z,101398.81
2019-03-22T21:21:03.303Z,101376.33
2019-03-22T21:23:36.258Z,101368.36
2019-03-22T21:25:57.145Z,101368.77
2019-03-22T21:28:23.083Z,101367.45
2019-03-22T21:30:49.036Z,101349.39
2019-03-22T21:33:14.918Z,101335.31
2019-03-22T21:35:40.883Z,101327.42
2019-03-22T21:38:11.041Z,101302.81
2019-03-22T21:40:36.209Z,101297.13
2019-03-22T21:43:02.154Z,101279.95
2019-03-22T21:45:28.216Z,101281.77
2019-03-22T21:47:54.081Z,101275.67
2019-03-22T21:50:20.011Z,101273.48
2019-03-22T21:52:45.908Z,101263.79
2019-03-22T21:55:12.031Z,101256.67
2019-03-22T21:57:37.884Z,101237.78
2019-03-22T22:00:07.903Z,101244.78
2019-03-22T22:02:33.784Z,101239.98
2019-03-22T22:04:59.772Z,101257.55
2019-03-22T22:07:25.640Z,101274.27
2019-03-22T22:09:51.514Z,101260.23
2019-03-22T22:12:17.393Z,101265.52
2019-03-22T22:14:43.371Z,101257.67
2019-03-22T22:17:09.215Z,101247.59
2019-03-22T22:19:35.074Z,101227.02
2019-03-22T22:22:00.933Z,101235.30
2019-03-22T22:24:26.790Z,101222.59
2019-03-22T22:26:52.682Z,101224.42
2019-03-22T22:29:18.547Z,101210.83
2019-03-22T22:31:44.592Z,101191.06
2019-03-22T22:34:10.490Z,101197.67
2019-03-22T22:36:36.483Z,101194.09
2019-03-22T22:39:04.325Z,101197.14
2019-03-22T22:41:30.200Z,101183.10
2019-03-22T22:43:56.208Z,101165.89
2019-03-22T22:46:22.202Z,101149.56
2019-03-22T22:48:48.059Z,101150.89
2019-03-22T22:51:13.898Z,101143.41
2019-03-22T22:53:39.747Z,101138.60
2019-03-22T22:56:05.666Z,101125.40
2019-03-22T22:58:31.521Z,101115.64
2019-03-22T23:00:57.565Z,101120.83
2019-03-22T23:03:23.434Z,101107.97
2019-03-22T23:05:49.311Z,101098.72
2019-03-22T23:08:15.160Z,101078.87
2019-03-22T23:10:41.148Z,101077.55
2019-03-22T23:13:07.001Z,101061.66
2019-03-22T23:15:32.856Z,101061.18
2019-03-22T23:17:58.837Z,101050.17
2019-03-22T23:20:24.792Z,101045.77
2019-03-22T23:22:50.643Z,101046.16
2019-03-22T23:25:16.513Z,101019.80
2019-03-22T23:27:42.399Z,101011.48
2019-03-22T23:30:09.566Z,101009.73
2019-03-22T23:32:35.699Z,100990.84
2019-03-22T23:35:01.782Z,100982.52
2019-03-22T23:37:27.634Z,101002.33
2019-03-22T23:39:53.613Z,101005.37
2019-03-22T23:42:19.592Z,100996.52
2019-03-22T23:44:45.736Z,101028.16
2019-03-22T23:47:11.714Z,101018.52
2019-03-22T23:49:37.633Z,100990.34
2019-03-22T23:52:03.496Z,100982.82
2019-03-22T23:54:29.370Z,100970.49
2019-03-22T23:56:55.229Z,100968.70
2019-03-22T23:59:21.108Z,100961.25
